sensor_id;sensor_type;location;lat;lon;timestamp;P1;durP1;ratioP1;P2;durP2;ratioP2
29934;SDS011;19905;53.370;-6.314;2022-09-01T00:03:00;11.02;;;2.50;;
29934;SDS011;19905;53.370;-6.314;2022-09-01T00:05:29;9.40;;;2.60;;
29934;SDS011;19905;53.370;-6.314;2022-09-01T00:07:58;8.52;;;2.38;;
29934;SDS011;19905;53.370;-6.314;2022-09-01T00:10:27;11.07;;;2.53;;
29934;SDS011;19905;53.370;-6.314;2022-09-01T00:12:55;14.68;;;2.60;;
29934;SDS011;19905;53.370;-6.314;2022-09-01T00:15:24;9.63;;;2.50;;
29934;SDS011;19905;53.370;-6.314;2022-09-01T00:17:53;11.45;;;2.58;;
29934;SDS011;19905;53.370;-6.314;2022-09-01T00:20:23;9.80;;;2.50;;
29934;SDS011;19905;53.370;-6.314;2022-09-01T00:22:52;10.13;;;2.50;;
29934;SDS011;19905;53.370;-6.314;2022-09-01T00:25:21;13.45;;;2.88;;
29934;SDS011;19905;53.370;-6.314;2022-09-01T00:27:50;10.82;;;2.70;;
29934;SDS011;19905;53.370;-6.314;2022-09-01T00:30:20;8.60;;;2.40;;
29934;SDS011;19905;53.370;-6.314;2022-09-01T00:32:49;12.48;;;2.83;;
29934;SDS011;19905;53.370;-6.314;2022-09-01T00:35:19;7.20;;;2.50;;
29934;SDS011;19905;53.370;-6.314;2022-09-01T00:37:49;11.10;;;2.75;;
29934;SDS011;19905;53.370;-6.314;2022-09-01T00:40:18;11.98;;;2.45;;
29934;SDS011;19905;53.370;-6.314;2022-09-01T00:42:48;11.85;;;2.70;;
29934;SDS011;19905;53.370;-6.314;2022-09-01T00:45:16;10.75;;;2.70;;
29934;SDS011;19905;53.370;-6.314;2022-09-01T00:47:48;11.13;;;2.58;;
29934;SDS011;19905;53.370;-6.314;2022-09-01T00:50:17;11.35;;;2.50;;
29934;SDS011;19905;53.370;-6.314;2022-09-01T00:52:48;12.30;;;2.70;;
29934;SDS011;19905;53.370;-6.314;2022-09-01T00:55:22;9.75;;;2.40;;
29934;SDS011;19905;53.370;-6.314;2022-09-01T00:57:58;12.15;;;2.88;;
29934;SDS011;19905;53.370;-6.314;2022-09-01T01:00:30;16.70;;;2.63;;
29934;SDS011;19905;53.370;-6.314;2022-09-01T01:03:08;9.25;;;2.67;;
29934;SDS011;19905;53.370;-6.314;2022-09-01T01:05:39;11.68;;;2.75;;
29934;SDS011;19905;53.370;-6.314;2022-09-01T01:08:23;9.60;;;2.42;;
29934;SDS011;19905;53.370;-6.314;2022-09-01T01:10:59;9.60;;;2.53;;
29934;SDS011;19905;53.370;-6.314;2022-09-01T01:13:29;10.35;;;2.40;;
29934;SDS011;19905;53.370;-6.314;2022-09-01T01:16:01;11.85;;;2.60;;
29934;SDS011;19905;53.370;-6.314;2022-09-01T01:18:34;13.43;;;2.65;;
29934;SDS011;19905;53.370;-6.314;2022-09-01T01:21:03;12.85;;;3.10;;
29934;SDS011;19905;53.370;-6.314;2022-09-01T01:23:52;9.50;;;2.88;;
29934;SDS011;19905;53.370;-6.314;2022-09-01T01:26:30;11.85;;;2.60;;
29934;SDS011;19905;53.370;-6.314;2022-09-01T01:28:59;11.32;;;3.10;;
29934;SDS011;19905;53.370;-6.314;2022-09-01T01:31:29;8.75;;;2.55;;
29934;SDS011;19905;53.370;-6.314;2022-09-01T01:33:58;9.38;;;2.83;;
29934;SDS011;19905;53.370;-6.314;2022-09-01T01:36:29;10.55;;;2.60;;
29934;SDS011;19905;53.370;-6.314;2022-09-01T01:39:03;8.23;;;2.50;;
29934;SDS011;19905;53.370;-6.314;2022-09-01T01:41:36;11.32;;;2.65;;
29934;SDS011;19905;53.370;-6.314;2022-09-01T01:44:07;12.35;;;2.88;;
29934;SDS011;19905;53.370;-6.314;2022-09-01T01:46:39;12.68;;;3.25;;
29934;SDS011;19905;53.370;-6.314;2022-09-01T01:49:10;11.50;;;3.00;;
29934;SDS011;19905;53.370;-6.314;2022-09-01T01:51:46;15.63;;;3.03;;
29934;SDS011;19905;53.370;-6.314;2022-09-01T01:54:16;15.88;;;3.13;;
29934;SDS011;19905;53.370;-6.314;2022-09-01T01:56:47;15.10;;;3.20;;
29934;SDS011;19905;53.370;-6.314;2022-09-01T01:59:16;12.45;;;2.75;;
29934;SDS011;19905;53.370;-6.314;2022-09-01T02:01:45;11.07;;;2.60;;
29934;SDS011;19905;53.370;-6.314;2022-09-01T02:04:17;18.35;;;3.00;;
29934;SDS011;19905;53.370;-6.314;2022-09-01T02:06:47;14.18;;;3.05;;
29934;SDS011;19905;53.370;-6.314;2022-09-01T02:09:18;14.40;;;3.03;;
29934;SDS011;19905;53.370;-6.314;2022-09-01T02:11:51;16.48;;;3.10;;
29934;SDS011;19905;53.370;-6.314;2022-09-01T02:14:22;15.15;;;2.58;;
29934;SDS011;19905;53.370;-6.314;2022-09-01T02:16:51;18.23;;;3.25;;
29934;SDS011;19905;53.370;-6.314;2022-09-01T02:19:21;20.52;;;3.78;;
29934;SDS011;19905;53.370;-6.314;2022-09-01T02:21:50;15.18;;;2.85;;
29934;SDS011;19905;53.370;-6.314;2022-09-01T02:24:21;18.88;;;3.83;;
29934;SDS011;19905;53.370;-6.314;2022-09-01T02:26:53;14.32;;;3.15;;
29934;SDS011;19905;53.370;-6.314;2022-09-01T02:29:26;20.42;;;3.65;;
29934;SDS011;19905;53.370;-6.314;2022-09-01T02:32:01;18.98;;;3.47;;
29934;SDS011;19905;53.370;-6.314;2022-09-01T02:34:31;21.80;;;3.70;;
29934;SDS011;19905;53.370;-6.314;2022-09-01T02:37:00;22.83;;;3.45;;
29934;SDS011;19905;53.370;-6.314;2022-09-01T02:39:30;24.85;;;3.42;;
29934;SDS011;19905;53.370;-6.314;2022-09-01T02:42:01;16.90;;;3.45;;
29934;SDS011;19905;53.370;-6.314;2022-09-01T02:44:29;25.08;;;3.55;;
29934;SDS011;19905;53.370;-6.314;2022-09-01T02:46:58;18.25;;;3.53;;
29934;SDS011;19905;53.370;-6.314;2022-09-01T02:49:27;18.08;;;3.42;;
29934;SDS011;19905;53.370;-6.314;2022-09-01T02:51:56;23.15;;;3.83;;
29934;SDS011;19905;53.370;-6.314;2022-09-01T02:54:29;21.50;;;3.55;;
29934;SDS011;19905;53.370;-6.314;2022-09-01T02:56:58;17.42;;;3.50;;
29934;SDS011;19905;53.370;-6.314;2022-09-01T02:59:29;20.52;;;3.90;;
29934;SDS011;19905;53.370;-6.314;2022-09-01T03:02:00;16.08;;;3.47;;
29934;SDS011;19905;53.370;-6.314;2022-09-01T03:04:29;20.08;;;4.15;;
29934;SDS011;19905;53.370;-6.314;2022-09-01T03:07:01;19.25;;;3.70;;
29934;SDS011;19905;53.370;-6.314;2022-09-01T03:09:30;20.17;;;4.10;;
29934;SDS011;19905;53.370;-6.314;2022-09-01T03:12:02;18.90;;;3.90;;
29934;SDS011;19905;53.370;-6.314;2022-09-01T03:14:32;18.58;;;3.85;;
29934;SDS011;19905;53.370;-6.314;2022-09-01T03:17:01;20.75;;;3.70;;
29934;SDS011;19905;53.370;-6.314;2022-09-01T03:19:30;16.90;;;3.97;;
29934;SDS011;19905;53.370;-6.314;2022-09-01T03:22:05;22.00;;;3.80;;
29934;SDS011;19905;53.370;-6.314;2022-09-01T03:24:34;19.00;;;4.05;;
29934;SDS011;19905;53.370;-6.314;2022-09-01T03:27:06;16.83;;;3.90;;
29934;SDS011;19905;53.370;-6.314;2022-09-01T03:29:37;21.40;;;3.90;;
29934;SDS011;19905;53.370;-6.314;2022-09-01T03:32:06;18.15;;;3.67;;
29934;SDS011;19905;53.370;-6.314;2022-09-01T03:34:35;20.30;;;4.18;;
29934;SDS011;19905;53.370;-6.314;2022-09-01T03:37:05;16.88;;;3.88;;
29934;SDS011;19905;53.370;-6.314;2022-09-01T03:39:35;16.42;;;3.40;;
29934;SDS011;19905;53.370;-6.314;2022-09-01T03:42:04;16.80;;;3.80;;
29934;SDS011;19905;53.370;-6.314;2022-09-01T03:44:36;14.80;;;4.10;;
29934;SDS011;19905;53.370;-6.314;2022-09-01T03:47:06;15.65;;;4.03;;
29934;SDS011;19905;53.370;-6.314;2022-09-01T03:49:40;16.02;;;4.40;;
29934;SDS011;19905;53.370;-6.314;2022-09-01T03:52:11;16.95;;;3.50;;
29934;SDS011;19905;53.370;-6.314;2022-09-01T03:54:42;13.18;;;3.60;;
29934;SDS011;19905;53.370;-6.314;2022-09-01T03:57:11;13.70;;;3.33;;
29934;SDS011;19905;53.370;-6.314;2022-09-01T03:59:41;13.13;;;3.50;;
29934;SDS011;19905;53.370;-6.314;2022-09-01T04:02:10;15.05;;;3.72;;
29934;SDS011;19905;53.370;-6.314;2022-09-01T04:04:40;14.32;;;4.10;;
29934;SDS011;19905;53.370;-6.314;2022-09-01T04:07:09;17.50;;;3.72;;
29934;SDS011;19905;53.370;-6.314;2022-09-01T04:09:44;12.38;;;4.05;;
29934;SDS011;19905;53.370;-6.314;2022-09-01T04:12:13;18.73;;;3.90;;
29934;SDS011;19905;53.370;-6.314;2022-09-01T04:14:44;14.63;;;4.00;;
29934;SDS011;19905;53.370;-6.314;2022-09-01T04:17:14;11.13;;;3.80;;
29934;SDS011;19905;53.370;-6.314;2022-09-01T04:20:01;13.18;;;3.70;;
29934;SDS011;19905;53.370;-6.314;2022-09-01T04:22:34;15.95;;;3.75;;
29934;SDS011;19905;53.370;-6.314;2022-09-01T04:25:04;17.02;;;4.18;;
29934;SDS011;19905;53.370;-6.314;2022-09-01T04:27:34;12.68;;;3.85;;
29934;SDS011;19905;53.370;-6.314;2022-09-01T04:30:09;13.45;;;4.20;;
29934;SDS011;19905;53.370;-6.314;2022-09-01T04:32:38;14.00;;;4.00;;
29934;SDS011;19905;53.370;-6.314;2022-09-01T04:35:07;17.30;;;3.97;;
29934;SDS011;19905;53.370;-6.314;2022-09-01T04:37:42;13.13;;;3.88;;
29934;SDS011;19905;53.370;-6.314;2022-09-01T04:40:14;13.90;;;4.05;;
29934;SDS011;19905;53.370;-6.314;2022-09-01T04:42:44;13.02;;;4.10;;
29934;SDS011;19905;53.370;-6.314;2022-09-01T04:45:14;11.80;;;4.00;;
29934;SDS011;19905;53.370;-6.314;2022-09-01T04:47:48;11.57;;;3.80;;
29934;SDS011;19905;53.370;-6.314;2022-09-01T04:50:18;15.68;;;4.38;;
29934;SDS011;19905;53.370;-6.314;2022-09-01T04:52:47;13.15;;;4.13;;
29934;SDS011;19905;53.370;-6.314;2022-09-01T04:55:16;13.00;;;4.03;;
29934;SDS011;19905;53.370;-6.314;2022-09-01T04:57:45;10.50;;;3.72;;
29934;SDS011;19905;53.370;-6.314;2022-09-01T05:00:19;14.52;;;4.22;;
29934;SDS011;19905;53.370;-6.314;2022-09-01T05:02:52;12.90;;;3.75;;
29934;SDS011;19905;53.370;-6.314;2022-09-01T05:05:34;12.93;;;3.90;;
29934;SDS011;19905;53.370;-6.314;2022-09-01T05:08:08;9.68;;;3.83;;
29934;SDS011;19905;53.370;-6.314;2022-09-01T05:10:50;18.40;;;4.63;;
29934;SDS011;19905;53.370;-6.314;2022-09-01T05:17:05;17.55;;;4.45;;
29934;SDS011;19905;53.370;-6.314;2022-09-01T05:19:36;13.75;;;4.10;;
29934;SDS011;19905;53.370;-6.314;2022-09-01T05:22:05;13.75;;;4.00;;
29934;SDS011;19905;53.370;-6.314;2022-09-01T05:24:36;14.98;;;4.40;;
29934;SDS011;19905;53.370;-6.314;2022-09-01T05:27:07;14.02;;;4.07;;
29934;SDS011;19905;53.370;-6.314;2022-09-01T05:29:43;14.45;;;4.60;;
29934;SDS011;19905;53.370;-6.314;2022-09-01T05:32:14;11.43;;;4.43;;
29934;SDS011;19905;53.370;-6.314;2022-09-01T05:34:42;17.13;;;4.20;;
29934;SDS011;19905;53.370;-6.314;2022-09-01T05:37:11;19.27;;;4.63;;
29934;SDS011;19905;53.370;-6.314;2022-09-01T05:39:43;13.80;;;4.22;;
29934;SDS011;19905;53.370;-6.314;2022-09-01T05:42:11;13.88;;;4.72;;
29934;SDS011;19905;53.370;-6.314;2022-09-01T05:44:40;14.63;;;4.60;;
29934;SDS011;19905;53.370;-6.314;2022-09-01T05:47:10;17.80;;;4.55;;
29934;SDS011;19905;53.370;-6.314;2022-09-01T05:49:48;17.98;;;4.72;;
29934;SDS011;19905;53.370;-6.314;2022-09-01T05:52:19;14.80;;;4.70;;
29934;SDS011;19905;53.370;-6.314;2022-09-01T05:54:52;15.25;;;4.53;;
29934;SDS011;19905;53.370;-6.314;2022-09-01T05:57:23;15.75;;;5.05;;
29934;SDS011;19905;53.370;-6.314;2022-09-01T06:00:01;11.82;;;4.70;;
29934;SDS011;19905;53.370;-6.314;2022-09-01T06:02:36;17.42;;;4.95;;
29934;SDS011;19905;53.370;-6.314;2022-09-01T06:05:08;13.25;;;5.07;;
29934;SDS011;19905;53.370;-6.314;2022-09-01T06:07:39;19.48;;;4.90;;
29934;SDS011;19905;53.370;-6.314;2022-09-01T06:10:08;18.90;;;5.40;;
29934;SDS011;19905;53.370;-6.314;2022-09-01T06:12:39;16.85;;;4.60;;
29934;SDS011;19905;53.370;-6.314;2022-09-01T06:15:14;19.85;;;5.25;;
29934;SDS011;19905;53.370;-6.314;2022-09-01T06:17:45;15.02;;;4.97;;
29934;SDS011;19905;53.370;-6.314;2022-09-01T06:20:16;18.70;;;5.05;;
29934;SDS011;19905;53.370;-6.314;2022-09-01T06:22:45;15.55;;;4.85;;
29934;SDS011;19905;53.370;-6.314;2022-09-01T06:25:15;14.35;;;4.53;;
29934;SDS011;19905;53.370;-6.314;2022-09-01T06:27:44;16.45;;;5.00;;
29934;SDS011;19905;53.370;-6.314;2022-09-01T06:30:15;14.85;;;4.68;;
29934;SDS011;19905;53.370;-6.314;2022-09-01T06:32:50;17.27;;;4.55;;
29934;SDS011;19905;53.370;-6.314;2022-09-01T06:35:22;12.05;;;4.60;;
29934;SDS011;19905;53.370;-6.314;2022-09-01T06:37:59;14.60;;;4.45;;
29934;SDS011;19905;53.370;-6.314;2022-09-01T06:40:28;14.75;;;4.60;;
29934;SDS011;19905;53.370;-6.314;2022-09-01T06:42:58;21.60;;;4.55;;
29934;SDS011;19905;53.370;-6.314;2022-09-01T06:45:29;20.02;;;4.63;;
29934;SDS011;19905;53.370;-6.314;2022-09-01T06:47:59;15.32;;;4.35;;
29934;SDS011;19905;53.370;-6.314;2022-09-01T06:50:30;16.42;;;4.65;;
29934;SDS011;19905;53.370;-6.314;2022-09-01T06:53:19;18.20;;;4.50;;
29934;SDS011;19905;53.370;-6.314;2022-09-01T06:56:04;20.58;;;4.70;;
29934;SDS011;19905;53.370;-6.314;2022-09-01T06:58:35;22.73;;;4.30;;
29934;SDS011;19905;53.370;-6.314;2022-09-01T07:01:08;20.55;;;4.35;;
29934;SDS011;19905;53.370;-6.314;2022-09-01T07:03:42;17.70;;;3.90;;
29934;SDS011;19905;53.370;-6.314;2022-09-01T07:06:14;19.10;;;4.10;;
29934;SDS011;19905;53.370;-6.314;2022-09-01T07:09:03;17.92;;;4.32;;
29934;SDS011;19905;53.370;-6.314;2022-09-01T07:11:53;17.25;;;3.90;;
29934;SDS011;19905;53.370;-6.314;2022-09-01T07:14:42;18.95;;;3.42;;
29934;SDS011;19905;53.370;-6.314;2022-09-01T07:17:32;16.20;;;3.45;;
29934;SDS011;19905;53.370;-6.314;2022-09-01T07:20:01;16.23;;;3.53;;
29934;SDS011;19905;53.370;-6.314;2022-09-01T07:22:52;18.80;;;3.65;;
29934;SDS011;19905;53.370;-6.314;2022-09-01T07:25:32;15.27;;;3.20;;
29934;SDS011;19905;53.370;-6.314;2022-09-01T07:28:24;12.88;;;3.08;;
29934;SDS011;19905;53.370;-6.314;2022-09-01T07:31:03;13.52;;;3.65;;
29934;SDS011;19905;53.370;-6.314;2022-09-01T07:33:55;14.93;;;3.20;;
29934;SDS011;19905;53.370;-6.314;2022-09-01T07:36:46;13.30;;;3.33;;
29934;SDS011;19905;53.370;-6.314;2022-09-01T07:39:37;10.45;;;3.50;;
29934;SDS011;19905;53.370;-6.314;2022-09-01T07:42:16;16.00;;;3.45;;
29934;SDS011;19905;53.370;-6.314;2022-09-01T07:45:07;11.32;;;3.30;;
29934;SDS011;19905;53.370;-6.314;2022-09-01T07:47:54;14.00;;;3.92;;
29934;SDS011;19905;53.370;-6.314;2022-09-01T07:50:25;12.80;;;3.58;;
29934;SDS011;19905;53.370;-6.314;2022-09-01T07:53:16;17.80;;;3.50;;
29934;SDS011;19905;53.370;-6.314;2022-09-01T07:55:50;13.55;;;3.05;;
29934;SDS011;19905;53.370;-6.314;2022-09-01T07:58:22;10.45;;;3.20;;
29934;SDS011;19905;53.370;-6.314;2022-09-01T08:00:53;12.77;;;3.42;;
29934;SDS011;19905;53.370;-6.314;2022-09-01T08:03:26;12.88;;;3.42;;
29934;SDS011;19905;53.370;-6.314;2022-09-01T08:05:54;13.40;;;3.88;;
29934;SDS011;19905;53.370;-6.314;2022-09-01T08:08:26;10.32;;;3.30;;
29934;SDS011;19905;53.370;-6.314;2022-09-01T08:10:58;13.95;;;3.35;;
29934;SDS011;19905;53.370;-6.314;2022-09-01T08:13:30;11.07;;;3.20;;
29934;SDS011;19905;53.370;-6.314;2022-09-01T08:16:07;12.32;;;3.63;;
29934;SDS011;19905;53.370;-6.314;2022-09-01T08:18:44;14.38;;;3.10;;
29934;SDS011;19905;53.370;-6.314;2022-09-01T08:21:16;12.32;;;3.20;;
29934;SDS011;19905;53.370;-6.314;2022-09-01T08:23:48;11.73;;;3.17;;
29934;SDS011;19905;53.370;-6.314;2022-09-01T08:26:19;14.68;;;3.25;;
29934;SDS011;19905;53.370;-6.314;2022-09-01T08:28:49;11.05;;;3.40;;
29934;SDS011;19905;53.370;-6.314;2022-09-01T08:31:22;13.45;;;2.92;;
29934;SDS011;19905;53.370;-6.314;2022-09-01T08:33:56;7.65;;;2.88;;
29934;SDS011;19905;53.370;-6.314;2022-09-01T08:36:25;15.43;;;3.50;;
29934;SDS011;19905;53.370;-6.314;2022-09-01T08:38:54;16.00;;;3.80;;
29934;SDS011;19905;53.370;-6.314;2022-09-01T08:41:27;13.73;;;3.50;;
29934;SDS011;19905;53.370;-6.314;2022-09-01T08:44:15;17.15;;;3.55;;
29934;SDS011;19905;53.370;-6.314;2022-09-01T08:46:51;12.70;;;3.28;;
29934;SDS011;19905;53.370;-6.314;2022-09-01T08:49:25;11.27;;;3.17;;
29934;SDS011;19905;53.370;-6.314;2022-09-01T08:51:56;11.35;;;3.17;;
29934;SDS011;19905;53.370;-6.314;2022-09-01T08:54:32;10.10;;;3.10;;
29934;SDS011;19905;53.370;-6.314;2022-09-01T08:57:13;9.32;;;2.90;;
29934;SDS011;19905;53.370;-6.314;2022-09-01T08:59:44;12.77;;;3.78;;
29934;SDS011;19905;53.370;-6.314;2022-09-01T09:02:22;11.02;;;2.78;;
29934;SDS011;19905;53.370;-6.314;2022-09-01T09:05:02;9.93;;;2.80;;
29934;SDS011;19905;53.370;-6.314;2022-09-01T09:07:47;11.30;;;3.00;;
29934;SDS011;19905;53.370;-6.314;2022-09-01T09:13:43;12.13;;;3.05;;
29934;SDS011;19905;53.370;-6.314;2022-09-01T09:16:23;9.98;;;2.95;;
29934;SDS011;19905;53.370;-6.314;2022-09-01T09:18:56;11.73;;;2.92;;
29934;SDS011;19905;53.370;-6.314;2022-09-01T09:21:28;10.98;;;2.85;;
29934;SDS011;19905;53.370;-6.314;2022-09-01T09:24:07;11.02;;;2.90;;
29934;SDS011;19905;53.370;-6.314;2022-09-01T09:26:47;8.43;;;2.70;;
29934;SDS011;19905;53.370;-6.314;2022-09-01T09:29:18;7.57;;;2.88;;
29934;SDS011;19905;53.370;-6.314;2022-09-01T09:31:48;7.32;;;2.53;;
29934;SDS011;19905;53.370;-6.314;2022-09-01T09:34:31;10.27;;;2.67;;
29934;SDS011;19905;53.370;-6.314;2022-09-01T09:37:16;6.13;;;2.35;;
29934;SDS011;19905;53.370;-6.314;2022-09-01T09:40:05;12.20;;;2.70;;
29934;SDS011;19905;53.370;-6.314;2022-09-01T09:42:38;9.20;;;2.60;;
29934;SDS011;19905;53.370;-6.314;2022-09-01T09:45:15;9.77;;;2.50;;
29934;SDS011;19905;53.370;-6.314;2022-09-01T09:47:50;10.75;;;2.40;;
29934;SDS011;19905;53.370;-6.314;2022-09-01T09:50:21;8.57;;;2.40;;
29934;SDS011;19905;53.370;-6.314;2022-09-01T09:53:09;6.57;;;2.40;;
29934;SDS011;19905;53.370;-6.314;2022-09-01T09:58:38;11.27;;;2.55;;
29934;SDS011;19905;53.370;-6.314;2022-09-01T10:01:11;7.03;;;2.45;;
29934;SDS011;19905;53.370;-6.314;2022-09-01T10:03:44;8.73;;;2.33;;
29934;SDS011;19905;53.370;-6.314;2022-09-01T10:06:28;10.20;;;2.65;;
29934;SDS011;19905;53.370;-6.314;2022-09-01T10:09:00;6.05;;;2.17;;
29934;SDS011;19905;53.370;-6.314;2022-09-01T10:11:32;7.78;;;2.25;;
29934;SDS011;19905;53.370;-6.314;2022-09-01T10:14:08;12.70;;;2.72;;
29934;SDS011;19905;53.370;-6.314;2022-09-01T10:17:08;13.15;;;2.47;;
29934;SDS011;19905;53.370;-6.314;2022-09-01T10:19:42;11.23;;;2.35;;
29934;SDS011;19905;53.370;-6.314;2022-09-01T10:22:15;11.27;;;2.35;;
29934;SDS011;19905;53.370;-6.314;2022-09-01T10:24:44;13.45;;;2.42;;
29934;SDS011;19905;53.370;-6.314;2022-09-01T10:27:18;9.23;;;2.40;;
29934;SDS011;19905;53.370;-6.314;2022-09-01T10:29:50;9.40;;;2.72;;
29934;SDS011;19905;53.370;-6.314;2022-09-01T10:32:46;10.02;;;2.40;;
29934;SDS011;19905;53.370;-6.314;2022-09-01T10:35:23;10.93;;;2.38;;
29934;SDS011;19905;53.370;-6.314;2022-09-01T10:37:54;7.13;;;2.00;;
29934;SDS011;19905;53.370;-6.314;2022-09-01T10:40:35;8.77;;;2.40;;
29934;SDS011;19905;53.370;-6.314;2022-09-01T10:43:24;11.32;;;2.45;;
29934;SDS011;19905;53.370;-6.314;2022-09-01T10:46:08;10.70;;;2.20;;
29934;SDS011;19905;53.370;-6.314;2022-09-01T10:49:12;10.48;;;2.53;;
29934;SDS011;19905;53.370;-6.314;2022-09-01T10:51:53;3.58;;;1.83;;
29934;SDS011;19905;53.370;-6.314;2022-09-01T11:03:38;10.90;;;2.78;;
29934;SDS011;19905;53.370;-6.314;2022-09-01T11:19:22;9.40;;;2.15;;
29934;SDS011;19905;53.370;-6.314;2022-09-01T11:22:07;7.72;;;2.15;;
29934;SDS011;19905;53.370;-6.314;2022-09-01T11:27:56;10.85;;;2.10;;
29934;SDS011;19905;53.370;-6.314;2022-09-01T11:30:40;6.90;;;2.20;;
29934;SDS011;19905;53.370;-6.314;2022-09-01T11:33:25;6.93;;;2.10;;
29934;SDS011;19905;53.370;-6.314;2022-09-01T11:36:01;12.10;;;2.35;;
29934;SDS011;19905;53.370;-6.314;2022-09-01T11:38:37;8.63;;;2.00;;
29934;SDS011;19905;53.370;-6.314;2022-09-01T11:41:20;11.07;;;2.40;;
29934;SDS011;19905;53.370;-6.314;2022-09-01T11:43:51;6.78;;;2.05;;
29934;SDS011;19905;53.370;-6.314;2022-09-01T11:46:28;13.65;;;2.40;;
29934;SDS011;19905;53.370;-6.314;2022-09-01T11:49:02;8.13;;;2.08;;
29934;SDS011;19905;53.370;-6.314;2022-09-01T11:51:40;11.35;;;1.98;;
29934;SDS011;19905;53.370;-6.314;2022-09-01T11:54:14;10.85;;;2.10;;
29934;SDS011;19905;53.370;-6.314;2022-09-01T11:56:43;9.45;;;1.90;;
29934;SDS011;19905;53.370;-6.314;2022-09-01T11:59:11;5.03;;;1.77;;
29934;SDS011;19905;53.370;-6.314;2022-09-01T12:01:40;8.02;;;1.70;;
29934;SDS011;19905;53.370;-6.314;2022-09-01T12:04:18;6.28;;;1.98;;
29934;SDS011;19905;53.370;-6.314;2022-09-01T12:06:53;11.02;;;1.98;;
29934;SDS011;19905;53.370;-6.314;2022-09-01T12:09:31;5.45;;;1.80;;
29934;SDS011;19905;53.370;-6.314;2022-09-01T12:12:07;7.82;;;2.20;;
29934;SDS011;19905;53.370;-6.314;2022-09-01T12:14:54;8.95;;;2.00;;
29934;SDS011;19905;53.370;-6.314;2022-09-01T12:17:32;6.53;;;1.63;;
29934;SDS011;19905;53.370;-6.314;2022-09-01T12:20:20;7.60;;;1.98;;
29934;SDS011;19905;53.370;-6.314;2022-09-01T12:22:55;7.95;;;2.00;;
29934;SDS011;19905;53.370;-6.314;2022-09-01T12:25:26;8.68;;;2.17;;
29934;SDS011;19905;53.370;-6.314;2022-09-01T12:27:56;10.98;;;2.15;;
29934;SDS011;19905;53.370;-6.314;2022-09-01T12:30:27;8.68;;;2.00;;
29934;SDS011;19905;53.370;-6.314;2022-09-01T12:32:56;8.65;;;2.10;;
29934;SDS011;19905;53.370;-6.314;2022-09-01T12:35:46;8.45;;;1.77;;
29934;SDS011;19905;53.370;-6.314;2022-09-01T12:38:20;10.15;;;2.28;;
29934;SDS011;19905;53.370;-6.314;2022-09-01T12:40:52;8.50;;;2.00;;
29934;SDS011;19905;53.370;-6.314;2022-09-01T12:43:34;6.97;;;2.08;;
29934;SDS011;19905;53.370;-6.314;2022-09-01T12:46:06;11.20;;;1.88;;
29934;SDS011;19905;53.370;-6.314;2022-09-01T12:48:38;9.93;;;2.10;;
29934;SDS011;19905;53.370;-6.314;2022-09-01T12:51:14;7.53;;;2.00;;
29934;SDS011;19905;53.370;-6.314;2022-09-01T12:53:53;8.40;;;1.98;;
29934;SDS011;19905;53.370;-6.314;2022-09-01T12:56:28;9.38;;;2.00;;
29934;SDS011;19905;53.370;-6.314;2022-09-01T12:59:06;7.80;;;2.30;;
29934;SDS011;19905;53.370;-6.314;2022-09-01T13:01:42;10.73;;;3.13;;
29934;SDS011;19905;53.370;-6.314;2022-09-01T13:04:13;9.68;;;2.42;;
29934;SDS011;19905;53.370;-6.314;2022-09-01T13:06:54;8.40;;;2.28;;
29934;SDS011;19905;53.370;-6.314;2022-09-01T13:09:27;8.88;;;1.92;;
29934;SDS011;19905;53.370;-6.314;2022-09-01T13:12:09;6.50;;;2.15;;
29934;SDS011;19905;53.370;-6.314;2022-09-01T13:14:39;7.70;;;2.00;;
29934;SDS011;19905;53.370;-6.314;2022-09-01T13:17:08;8.73;;;2.28;;
29934;SDS011;19905;53.370;-6.314;2022-09-01T13:19:40;12.80;;;2.60;;
29934;SDS011;19905;53.370;-6.314;2022-09-01T13:22:09;9.55;;;2.20;;
29934;SDS011;19905;53.370;-6.314;2022-09-01T13:24:38;7.85;;;2.40;;
29934;SDS011;19905;53.370;-6.314;2022-09-01T13:27:06;8.10;;;2.22;;
29934;SDS011;19905;53.370;-6.314;2022-09-01T13:29:53;8.27;;;2.35;;
29934;SDS011;19905;53.370;-6.314;2022-09-01T13:32:22;10.55;;;2.40;;
29934;SDS011;19905;53.370;-6.314;2022-09-01T13:34:52;12.82;;;3.22;;
29934;SDS011;19905;53.370;-6.314;2022-09-01T13:37:21;8.80;;;2.20;;
29934;SDS011;19905;53.370;-6.314;2022-09-01T13:39:50;8.70;;;2.38;;
29934;SDS011;19905;53.370;-6.314;2022-09-01T13:42:18;8.30;;;2.50;;
29934;SDS011;19905;53.370;-6.314;2022-09-01T13:44:49;6.40;;;2.30;;
29934;SDS011;19905;53.370;-6.314;2022-09-01T13:47:23;10.10;;;2.45;;
29934;SDS011;19905;53.370;-6.314;2022-09-01T13:49:55;14.48;;;2.50;;
29934;SDS011;19905;53.370;-6.314;2022-09-01T13:52:35;8.23;;;2.25;;
29934;SDS011;19905;53.370;-6.314;2022-09-01T13:55:04;11.98;;;2.50;;
29934;SDS011;19905;53.370;-6.314;2022-09-01T13:57:34;8.85;;;2.60;;
29934;SDS011;19905;53.370;-6.314;2022-09-01T14:00:03;6.18;;;2.75;;
29934;SDS011;19905;53.370;-6.314;2022-09-01T14:02:38;11.80;;;2.40;;
29934;SDS011;19905;53.370;-6.314;2022-09-01T14:05:08;8.82;;;2.40;;
29934;SDS011;19905;53.370;-6.314;2022-09-01T14:07:37;11.07;;;2.50;;
29934;SDS011;19905;53.370;-6.314;2022-09-01T14:10:06;8.98;;;2.40;;
29934;SDS011;19905;53.370;-6.314;2022-09-01T14:12:36;7.43;;;2.40;;
29934;SDS011;19905;53.370;-6.314;2022-09-01T14:15:06;4.60;;;2.20;;
29934;SDS011;19905;53.370;-6.314;2022-09-01T14:17:43;5.72;;;2.20;;
29934;SDS011;19905;53.370;-6.314;2022-09-01T14:20:14;7.82;;;2.22;;
29934;SDS011;19905;53.370;-6.314;2022-09-01T14:22:45;8.73;;;2.33;;
29934;SDS011;19905;53.370;-6.314;2022-09-01T14:25:14;6.80;;;2.13;;
29934;SDS011;19905;53.370;-6.314;2022-09-01T14:27:44;8.57;;;2.25;;
29934;SDS011;19905;53.370;-6.314;2022-09-01T14:30:15;9.10;;;2.20;;
29934;SDS011;19905;53.370;-6.314;2022-09-01T14:35:53;8.20;;;2.15;;
29934;SDS011;19905;53.370;-6.314;2022-09-01T14:38:21;7.90;;;2.22;;
29934;SDS011;19905;53.370;-6.314;2022-09-01T14:40:50;6.70;;;2.22;;
29934;SDS011;19905;53.370;-6.314;2022-09-01T14:43:20;6.90;;;2.22;;
29934;SDS011;19905;53.370;-6.314;2022-09-01T14:45:48;7.15;;;2.40;;
29934;SDS011;19905;53.370;-6.314;2022-09-01T14:48:17;8.57;;;2.17;;
29934;SDS011;19905;53.370;-6.314;2022-09-01T14:50:49;7.82;;;1.88;;
29934;SDS011;19905;53.370;-6.314;2022-09-01T14:53:17;9.02;;;2.60;;
29934;SDS011;19905;53.370;-6.314;2022-09-01T14:55:46;5.30;;;2.20;;
29934;SDS011;19905;53.370;-6.314;2022-09-01T14:58:21;5.70;;;1.90;;
29934;SDS011;19905;53.370;-6.314;2022-09-01T15:00:53;7.43;;;2.30;;
29934;SDS011;19905;53.370;-6.314;2022-09-01T15:03:43;5.90;;;2.15;;
29934;SDS011;19905;53.370;-6.314;2022-09-01T15:06:15;7.63;;;2.10;;
29934;SDS011;19905;53.370;-6.314;2022-09-01T15:08:45;7.50;;;2.30;;
29934;SDS011;19905;53.370;-6.314;2022-09-01T15:11:16;5.28;;;1.90;;
29934;SDS011;19905;53.370;-6.314;2022-09-01T15:13:46;9.77;;;2.25;;
29934;SDS011;19905;53.370;-6.314;2022-09-01T15:16:19;9.48;;;2.40;;
29934;SDS011;19905;53.370;-6.314;2022-09-01T15:18:50;8.40;;;2.20;;
29934;SDS011;19905;53.370;-6.314;2022-09-01T15:21:23;7.22;;;2.42;;
29934;SDS011;19905;53.370;-6.314;2022-09-01T15:23:53;6.43;;;2.10;;
29934;SDS011;19905;53.370;-6.314;2022-09-01T15:26:22;8.55;;;2.10;;
29934;SDS011;19905;53.370;-6.314;2022-09-01T15:28:51;7.32;;;2.10;;
29934;SDS011;19905;53.370;-6.314;2022-09-01T15:31:21;7.22;;;1.90;;
29934;SDS011;19905;53.370;-6.314;2022-09-01T15:33:59;6.80;;;1.92;;
29934;SDS011;19905;53.370;-6.314;2022-09-01T15:36:33;7.88;;;2.38;;
29934;SDS011;19905;53.370;-6.314;2022-09-01T15:39:06;5.85;;;2.08;;
29934;SDS011;19905;53.370;-6.314;2022-09-01T15:41:36;8.07;;;2.13;;
29934;SDS011;19905;53.370;-6.314;2022-09-01T15:44:05;7.15;;;1.85;;